sensor_id;sensor_type;location;lat;lon;timestamp;P1;durP1;ratioP1;P2;durP2;ratioP2
12259;SDS011;6192;47.742;9.262;2022-09-25T00:00:40;11.03;;;9.77;;
12259;SDS011;6192;47.742;9.262;2022-09-25T00:03:12;12.07;;;10.30;;
12259;SDS011;6192;47.742;9.262;2022-09-25T00:05:40;11.00;;;9.90;;
12259;SDS011;6192;47.742;9.262;2022-09-25T00:08:08;10.87;;;9.87;;
12259;SDS011;6192;47.742;9.262;2022-09-25T00:13:49;12.60;;;11.30;;
12259;SDS011;6192;47.742;9.262;2022-09-25T00:16:17;11.40;;;10.30;;
12259;SDS011;6192;47.742;9.262;2022-09-25T00:18:46;11.47;;;10.37;;
12259;SDS011;6192;47.742;9.262;2022-09-25T00:21:31;10.57;;;9.57;;
12259;SDS011;6192;47.742;9.262;2022-09-25T00:24:00;11.13;;;10.13;;
12259;SDS011;6192;47.742;9.262;2022-09-25T00:26:31;12.00;;;10.80;;
12259;SDS011;6192;47.742;9.262;2022-09-25T00:29:01;11.50;;;10.40;;
12259;SDS011;6192;47.742;9.262;2022-09-25T00:31:29;12.37;;;11.17;;
12259;SDS011;6192;47.742;9.262;2022-09-25T00:33:58;11.47;;;10.47;;
12259;SDS011;6192;47.742;9.262;2022-09-25T00:36:27;12.33;;;11.13;;
12259;SDS011;6192;47.742;9.262;2022-09-25T00:38:54;12.20;;;11.00;;
12259;SDS011;6192;47.742;9.262;2022-09-25T00:41:22;12.50;;;11.20;;
12259;SDS011;6192;47.742;9.262;2022-09-25T00:43:52;11.37;;;10.33;;
12259;SDS011;6192;47.742;9.262;2022-09-25T00:46:23;10.50;;;9.50;;
12259;SDS011;6192;47.742;9.262;2022-09-25T00:51:26;10.77;;;9.77;;
12259;SDS011;6192;47.742;9.262;2022-09-25T00:54:00;13.17;;;11.87;;
12259;SDS011;6192;47.742;9.262;2022-09-25T00:56:33;12.77;;;11.43;;
12259;SDS011;6192;47.742;9.262;2022-09-25T00:59:06;13.87;;;11.93;;
12259;SDS011;6192;47.742;9.262;2022-09-25T01:01:38;11.77;;;10.67;;
12259;SDS011;6192;47.742;9.262;2022-09-25T01:04:06;19.77;;;13.70;;
12259;SDS011;6192;47.742;9.262;2022-09-25T01:06:34;9.20;;;8.40;;
12259;SDS011;6192;47.742;9.262;2022-09-25T01:09:01;8.20;;;7.50;;
12259;SDS011;6192;47.742;9.262;2022-09-25T01:11:28;8.10;;;7.40;;
12259;SDS011;6192;47.742;9.262;2022-09-25T01:13:56;8.43;;;7.73;;
12259;SDS011;6192;47.742;9.262;2022-09-25T01:16:41;10.63;;;9.63;;
12259;SDS011;6192;47.742;9.262;2022-09-25T01:19:40;11.73;;;10.63;;
12259;SDS011;6192;47.742;9.262;2022-09-25T01:25:10;16.17;;;12.80;;
12259;SDS011;6192;47.742;9.262;2022-09-25T01:28:05;15.27;;;10.80;;
12259;SDS011;6192;47.742;9.262;2022-09-25T01:30:41;12.60;;;11.33;;
12259;SDS011;6192;47.742;9.262;2022-09-25T01:35:57;25.80;;;18.70;;
12259;SDS011;6192;47.742;9.262;2022-09-25T01:38:32;14.60;;;13.17;;
12259;SDS011;6192;47.742;9.262;2022-09-25T01:41:07;13.37;;;12.07;;
12259;SDS011;6192;47.742;9.262;2022-09-25T01:43:43;13.27;;;11.97;;
12259;SDS011;6192;47.742;9.262;2022-09-25T01:46:17;17.50;;;15.67;;
12259;SDS011;6192;47.742;9.262;2022-09-25T01:48:58;13.83;;;12.23;;
12259;SDS011;6192;47.742;9.262;2022-09-25T01:51:43;47.43;;;26.67;;
12259;SDS011;6192;47.742;9.262;2022-09-25T01:54:16;14.90;;;13.40;;
12259;SDS011;6192;47.742;9.262;2022-09-25T01:57:01;12.83;;;11.53;;
12259;SDS011;6192;47.742;9.262;2022-09-25T01:59:53;13.03;;;11.70;;
12259;SDS011;6192;47.742;9.262;2022-09-25T02:02:26;14.30;;;12.90;;
12259;SDS011;6192;47.742;9.262;2022-09-25T02:08:16;12.60;;;11.40;;
12259;SDS011;6192;47.742;9.262;2022-09-25T02:10:56;17.80;;;15.20;;
12259;SDS011;6192;47.742;9.262;2022-09-25T02:13:42;16.37;;;14.67;;
12259;SDS011;6192;47.742;9.262;2022-09-25T02:16:20;14.23;;;12.83;;
12259;SDS011;6192;47.742;9.262;2022-09-25T02:18:53;16.20;;;14.60;;
12259;SDS011;6192;47.742;9.262;2022-09-25T02:21:43;13.30;;;12.00;;
12259;SDS011;6192;47.742;9.262;2022-09-25T02:24:28;12.97;;;11.70;;
12259;SDS011;6192;47.742;9.262;2022-09-25T02:27:04;13.80;;;12.40;;
12259;SDS011;6192;47.742;9.262;2022-09-25T02:29:31;13.10;;;11.80;;
12259;SDS011;6192;47.742;9.262;2022-09-25T02:32:02;14.13;;;12.50;;
12259;SDS011;6192;47.742;9.262;2022-09-25T02:34:33;18.93;;;15.50;;
12259;SDS011;6192;47.742;9.262;2022-09-25T02:37:01;15.70;;;14.10;;
12259;SDS011;6192;47.742;9.262;2022-09-25T02:39:29;15.30;;;13.47;;
12259;SDS011;6192;47.742;9.262;2022-09-25T02:42:58;18.57;;;15.87;;
12259;SDS011;6192;47.742;9.262;2022-09-25T02:45:01;20.73;;;16.57;;
12259;SDS011;6192;47.742;9.262;2022-09-25T02:53:13;18.63;;;16.40;;
12259;SDS011;6192;47.742;9.262;2022-09-25T02:58:46;23.63;;;18.50;;
12259;SDS011;6192;47.742;9.262;2022-09-25T03:01:16;62.93;;;24.93;;
12259;SDS011;6192;47.742;9.262;2022-09-25T03:03:45;20.47;;;18.13;;
12259;SDS011;6192;47.742;9.262;2022-09-25T03:06:15;24.90;;;19.70;;
12259;SDS011;6192;47.742;9.262;2022-09-25T03:08:45;252.90;;;37.77;;
12259;SDS011;6192;47.742;9.262;2022-09-25T03:11:18;22.63;;;17.87;;
12259;SDS011;6192;47.742;9.262;2022-09-25T03:13:54;17.70;;;15.53;;
12259;SDS011;6192;47.742;9.262;2022-09-25T03:18:52;16.40;;;14.70;;
12259;SDS011;6192;47.742;9.262;2022-09-25T03:21:19;15.93;;;14.33;;
12259;SDS011;6192;47.742;9.262;2022-09-25T03:23:46;17.07;;;15.17;;
12259;SDS011;6192;47.742;9.262;2022-09-25T03:26:12;18.97;;;16.37;;
12259;SDS011;6192;47.742;9.262;2022-09-25T03:28:39;15.10;;;12.87;;
12259;SDS011;6192;47.742;9.262;2022-09-25T03:31:08;17.83;;;14.33;;
12259;SDS011;6192;47.742;9.262;2022-09-25T03:33:37;44.60;;;23.23;;
12259;SDS011;6192;47.742;9.262;2022-09-25T03:36:12;18.80;;;15.00;;
12259;SDS011;6192;47.742;9.262;2022-09-25T03:38:45;18.90;;;16.07;;
12259;SDS011;6192;47.742;9.262;2022-09-25T03:41:14;16.17;;;14.47;;
12259;SDS011;6192;47.742;9.262;2022-09-25T03:43:45;22.13;;;15.83;;
12259;SDS011;6192;47.742;9.262;2022-09-25T03:46:17;17.47;;;15.23;;
12259;SDS011;6192;47.742;9.262;2022-09-25T03:48:47;17.77;;;14.93;;
12259;SDS011;6192;47.742;9.262;2022-09-25T03:51:14;18.47;;;15.40;;
12259;SDS011;6192;47.742;9.262;2022-09-25T03:53:41;16.67;;;14.47;;
12259;SDS011;6192;47.742;9.262;2022-09-25T03:56:10;26.47;;;19.50;;
12259;SDS011;6192;47.742;9.262;2022-09-25T03:58:38;15.20;;;13.60;;
12259;SDS011;6192;47.742;9.262;2022-09-25T04:01:05;15.90;;;13.57;;
12259;SDS011;6192;47.742;9.262;2022-09-25T04:03:33;15.10;;;12.97;;
12259;SDS011;6192;47.742;9.262;2022-09-25T04:06:00;17.57;;;15.13;;
12259;SDS011;6192;47.742;9.262;2022-09-25T04:08:30;15.33;;;13.70;;
12259;SDS011;6192;47.742;9.262;2022-09-25T04:10:58;17.93;;;14.87;;
12259;SDS011;6192;47.742;9.262;2022-09-25T04:13:30;20.20;;;16.03;;
12259;SDS011;6192;47.742;9.262;2022-09-25T04:15:59;17.23;;;15.10;;
12259;SDS011;6192;47.742;9.262;2022-09-25T04:18:27;24.43;;;17.57;;
12259;SDS011;6192;47.742;9.262;2022-09-25T04:21:00;19.17;;;15.50;;
12259;SDS011;6192;47.742;9.262;2022-09-25T04:23:30;17.93;;;15.30;;
12259;SDS011;6192;47.742;9.262;2022-09-25T04:25:57;193.93;;;35.93;;
12259;SDS011;6192;47.742;9.262;2022-09-25T04:28:24;23.20;;;16.93;;
12259;SDS011;6192;47.742;9.262;2022-09-25T04:30:52;20.13;;;16.00;;
12259;SDS011;6192;47.742;9.262;2022-09-25T04:33:19;18.80;;;16.57;;
12259;SDS011;6192;47.742;9.262;2022-09-25T04:36:04;23.77;;;17.80;;
12259;SDS011;6192;47.742;9.262;2022-09-25T04:38:31;40.70;;;19.53;;
12259;SDS011;6192;47.742;9.262;2022-09-25T04:40:59;29.03;;;17.17;;
12259;SDS011;6192;47.742;9.262;2022-09-25T04:43:30;17.47;;;15.10;;
12259;SDS011;6192;47.742;9.262;2022-09-25T04:46:01;18.57;;;15.87;;
12259;SDS011;6192;47.742;9.262;2022-09-25T04:48:33;25.33;;;19.13;;
12259;SDS011;6192;47.742;9.262;2022-09-25T04:51:03;17.67;;;14.67;;
12259;SDS011;6192;47.742;9.262;2022-09-25T04:53:31;17.87;;;15.23;;
12259;SDS011;6192;47.742;9.262;2022-09-25T04:56:01;42.83;;;18.23;;
12259;SDS011;6192;47.742;9.262;2022-09-25T04:58:30;15.27;;;13.67;;
12259;SDS011;6192;47.742;9.262;2022-09-25T05:01:02;13.77;;;12.37;;
12259;SDS011;6192;47.742;9.262;2022-09-25T05:03:30;16.83;;;13.33;;
12259;SDS011;6192;47.742;9.262;2022-09-25T05:05:57;13.43;;;12.03;;
12259;SDS011;6192;47.742;9.262;2022-09-25T05:08:25;15.97;;;13.17;;
12259;SDS011;6192;47.742;9.262;2022-09-25T05:10:52;13.67;;;12.27;;
12259;SDS011;6192;47.742;9.262;2022-09-25T05:13:20;13.80;;;12.30;;
12259;SDS011;6192;47.742;9.262;2022-09-25T05:15:46;13.73;;;12.33;;
12259;SDS011;6192;47.742;9.262;2022-09-25T05:18:20;19.57;;;13.87;;
12259;SDS011;6192;47.742;9.262;2022-09-25T05:20:48;16.93;;;12.30;;
12259;SDS011;6192;47.742;9.262;2022-09-25T05:23:16;12.27;;;11.07;;
12259;SDS011;6192;47.742;9.262;2022-09-25T05:25:43;13.47;;;11.80;;
12259;SDS011;6192;47.742;9.262;2022-09-25T05:28:17;12.97;;;11.73;;
12259;SDS011;6192;47.742;9.262;2022-09-25T05:30:44;13.37;;;11.97;;
12259;SDS011;6192;47.742;9.262;2022-09-25T05:33:10;11.90;;;10.70;;
12259;SDS011;6192;47.742;9.262;2022-09-25T05:35:37;13.03;;;11.70;;
12259;SDS011;6192;47.742;9.262;2022-09-25T05:38:04;18.77;;;13.50;;
12259;SDS011;6192;47.742;9.262;2022-09-25T05:40:32;17.27;;;14.20;;
12259;SDS011;6192;47.742;9.262;2022-09-25T05:43:00;11.90;;;10.80;;
12259;SDS011;6192;47.742;9.262;2022-09-25T05:45:27;17.87;;;13.67;;
12259;SDS011;6192;47.742;9.262;2022-09-25T05:48:01;17.13;;;13.67;;
12259;SDS011;6192;47.742;9.262;2022-09-25T05:50:29;13.00;;;11.43;;
12259;SDS011;6192;47.742;9.262;2022-09-25T05:53:00;12.17;;;10.87;;
12259;SDS011;6192;47.742;9.262;2022-09-25T05:55:29;19.80;;;12.37;;
12259;SDS011;6192;47.742;9.262;2022-09-25T05:58:00;19.97;;;14.23;;
12259;SDS011;6192;47.742;9.262;2022-09-25T06:00:28;11.43;;;10.23;;
12259;SDS011;6192;47.742;9.262;2022-09-25T06:03:01;29.50;;;17.30;;
12259;SDS011;6192;47.742;9.262;2022-09-25T06:05:28;18.00;;;12.90;;
12259;SDS011;6192;47.742;9.262;2022-09-25T06:07:55;19.20;;;13.83;;
12259;SDS011;6192;47.742;9.262;2022-09-25T06:10:22;21.13;;;14.37;;
12259;SDS011;6192;47.742;9.262;2022-09-25T06:12:56;22.53;;;16.07;;
12259;SDS011;6192;47.742;9.262;2022-09-25T06:15:25;25.77;;;17.90;;
12259;SDS011;6192;47.742;9.262;2022-09-25T06:17:53;25.83;;;17.63;;
12259;SDS011;6192;47.742;9.262;2022-09-25T06:20:21;40.73;;;20.53;;
12259;SDS011;6192;47.742;9.262;2022-09-25T06:22:55;60.07;;;25.83;;
12259;SDS011;6192;47.742;9.262;2022-09-25T06:25:23;29.97;;;20.27;;
12259;SDS011;6192;47.742;9.262;2022-09-25T06:27:52;38.63;;;23.13;;
12259;SDS011;6192;47.742;9.262;2022-09-25T06:30:20;34.77;;;22.30;;
12259;SDS011;6192;47.742;9.262;2022-09-25T06:32:48;88.93;;;30.47;;
12259;SDS011;6192;47.742;9.262;2022-09-25T06:35:25;32.37;;;21.40;;
12259;SDS011;6192;47.742;9.262;2022-09-25T06:37:59;60.47;;;27.40;;
12259;SDS011;6192;47.742;9.262;2022-09-25T06:40:28;32.63;;;22.57;;
12259;SDS011;6192;47.742;9.262;2022-09-25T06:42:57;37.63;;;23.00;;
12259;SDS011;6192;47.742;9.262;2022-09-25T06:45:25;47.33;;;24.93;;
12259;SDS011;6192;47.742;9.262;2022-09-25T06:48:08;46.70;;;25.47;;
12259;SDS011;6192;47.742;9.262;2022-09-25T06:50:42;36.77;;;22.13;;
12259;SDS011;6192;47.742;9.262;2022-09-25T06:53:20;27.67;;;19.37;;
12259;SDS011;6192;47.742;9.262;2022-09-25T06:55:49;36.33;;;23.10;;
12259;SDS011;6192;47.742;9.262;2022-09-25T06:58:17;25.90;;;18.43;;
12259;SDS011;6192;47.742;9.262;2022-09-25T07:00:47;25.17;;;17.87;;
12259;SDS011;6192;47.742;9.262;2022-09-25T07:03:15;28.83;;;20.33;;
12259;SDS011;6192;47.742;9.262;2022-09-25T07:06:01;32.97;;;23.57;;
12259;SDS011;6192;47.742;9.262;2022-09-25T07:08:29;27.77;;;19.90;;
12259;SDS011;6192;47.742;9.262;2022-09-25T07:10:56;33.23;;;20.77;;
12259;SDS011;6192;47.742;9.262;2022-09-25T07:13:25;29.60;;;19.90;;
12259;SDS011;6192;47.742;9.262;2022-09-25T07:15:55;28.80;;;19.10;;
12259;SDS011;6192;47.742;9.262;2022-09-25T07:18:25;35.23;;;21.77;;
12259;SDS011;6192;47.742;9.262;2022-09-25T07:20:53;27.43;;;18.87;;
12259;SDS011;6192;47.742;9.262;2022-09-25T07:23:24;34.83;;;21.73;;
12259;SDS011;6192;47.742;9.262;2022-09-25T07:25:51;26.20;;;19.10;;
12259;SDS011;6192;47.742;9.262;2022-09-25T07:28:18;32.13;;;21.27;;
12259;SDS011;6192;47.742;9.262;2022-09-25T07:30:45;27.33;;;20.03;;
12259;SDS011;6192;47.742;9.262;2022-09-25T07:33:14;27.23;;;18.97;;
12259;SDS011;6192;47.742;9.262;2022-09-25T07:35:41;27.17;;;18.80;;
12259;SDS011;6192;47.742;9.262;2022-09-25T07:38:08;36.17;;;25.40;;
12259;SDS011;6192;47.742;9.262;2022-09-25T07:40:35;24.00;;;18.70;;
12259;SDS011;6192;47.742;9.262;2022-09-25T07:43:05;22.37;;;17.70;;
12259;SDS011;6192;47.742;9.262;2022-09-25T07:45:32;25.97;;;19.00;;
12259;SDS011;6192;47.742;9.262;2022-09-25T07:48:00;21.03;;;17.40;;
12259;SDS011;6192;47.742;9.262;2022-09-25T07:50:29;21.70;;;16.70;;
12259;SDS011;6192;47.742;9.262;2022-09-25T07:52:57;18.20;;;15.23;;
12259;SDS011;6192;47.742;9.262;2022-09-25T07:55:23;29.47;;;21.40;;
12259;SDS011;6192;47.742;9.262;2022-09-25T07:57:56;20.27;;;17.20;;
12259;SDS011;6192;47.742;9.262;2022-09-25T08:00:23;30.87;;;24.30;;
12259;SDS011;6192;47.742;9.262;2022-09-25T08:02:54;20.33;;;17.27;;
12259;SDS011;6192;47.742;9.262;2022-09-25T08:05:25;20.70;;;16.23;;
12259;SDS011;6192;47.742;9.262;2022-09-25T08:07:52;19.77;;;14.73;;
12259;SDS011;6192;47.742;9.262;2022-09-25T08:10:20;17.63;;;13.67;;
12259;SDS011;6192;47.742;9.262;2022-09-25T08:12:47;20.60;;;14.80;;
12259;SDS011;6192;47.742;9.262;2022-09-25T08:15:15;22.87;;;15.73;;
12259;SDS011;6192;47.742;9.262;2022-09-25T08:17:42;20.73;;;18.47;;
12259;SDS011;6192;47.742;9.262;2022-09-25T08:20:09;22.20;;;17.43;;
12259;SDS011;6192;47.742;9.262;2022-09-25T08:22:36;21.53;;;18.33;;
12259;SDS011;6192;47.742;9.262;2022-09-25T08:25:03;20.00;;;16.17;;
12259;SDS011;6192;47.742;9.262;2022-09-25T08:27:30;18.13;;;15.10;;
12259;SDS011;6192;47.742;9.262;2022-09-25T08:29:57;17.17;;;14.73;;
12259;SDS011;6192;47.742;9.262;2022-09-25T08:32:24;15.70;;;12.57;;
12259;SDS011;6192;47.742;9.262;2022-09-25T08:34:51;19.27;;;14.60;;
12259;SDS011;6192;47.742;9.262;2022-09-25T08:37:18;16.07;;;13.37;;
12259;SDS011;6192;47.742;9.262;2022-09-25T08:39:46;16.00;;;13.13;;
12259;SDS011;6192;47.742;9.262;2022-09-25T08:42:22;16.57;;;13.03;;
12259;SDS011;6192;47.742;9.262;2022-09-25T08:44:55;15.60;;;12.37;;
12259;SDS011;6192;47.742;9.262;2022-09-25T08:47:48;18.07;;;13.10;;
12259;SDS011;6192;47.742;9.262;2022-09-25T08:50:36;16.77;;;12.53;;
12259;SDS011;6192;47.742;9.262;2022-09-25T08:53:09;16.13;;;12.77;;
12259;SDS011;6192;47.742;9.262;2022-09-25T08:55:41;15.07;;;12.00;;
12259;SDS011;6192;47.742;9.262;2022-09-25T08:58:31;15.90;;;12.37;;
12259;SDS011;6192;47.742;9.262;2022-09-25T09:01:00;15.53;;;12.07;;
12259;SDS011;6192;47.742;9.262;2022-09-25T09:03:42;22.40;;;19.03;;
12259;SDS011;6192;47.742;9.262;2022-09-25T09:06:14;15.87;;;12.13;;
12259;SDS011;6192;47.742;9.262;2022-09-25T09:08:43;12.17;;;10.83;;
12259;SDS011;6192;47.742;9.262;2022-09-25T09:11:21;16.00;;;11.87;;
12259;SDS011;6192;47.742;9.262;2022-09-25T09:14:03;13.67;;;11.90;;
12259;SDS011;6192;47.742;9.262;2022-09-25T09:19:08;15.97;;;12.20;;
12259;SDS011;6192;47.742;9.262;2022-09-25T09:21:37;17.70;;;13.67;;
12259;SDS011;6192;47.742;9.262;2022-09-25T09:30:14;13.30;;;10.80;;
12259;SDS011;6192;47.742;9.262;2022-09-25T09:41:06;17.00;;;12.77;;
12259;SDS011;6192;47.742;9.262;2022-09-25T09:46:52;14.83;;;12.00;;
12259;SDS011;6192;47.742;9.262;2022-09-25T09:55:16;14.67;;;12.23;;
12259;SDS011;6192;47.742;9.262;2022-09-25T09:58:05;10.70;;;9.43;;
12259;SDS011;6192;47.742;9.262;2022-09-25T10:00:40;10.43;;;9.23;;
12259;SDS011;6192;47.742;9.262;2022-09-25T10:03:24;10.40;;;9.30;;
12259;SDS011;6192;47.742;9.262;2022-09-25T10:06:01;9.90;;;8.90;;
12259;SDS011;6192;47.742;9.262;2022-09-25T10:08:31;10.03;;;9.03;;
12259;SDS011;6192;47.742;9.262;2022-09-25T10:10:57;10.53;;;8.80;;
12259;SDS011;6192;47.742;9.262;2022-09-25T10:13:31;10.07;;;8.93;;
12259;SDS011;6192;47.742;9.262;2022-09-25T10:21:18;9.17;;;8.27;;
12259;SDS011;6192;47.742;9.262;2022-09-25T10:28:47;11.20;;;9.30;;
12259;SDS011;6192;47.742;9.262;2022-09-25T10:31:14;9.50;;;8.50;;
12259;SDS011;6192;47.742;9.262;2022-09-25T10:33:43;10.13;;;8.87;;
12259;SDS011;6192;47.742;9.262;2022-09-25T10:36:33;11.00;;;9.90;;
12259;SDS011;6192;47.742;9.262;2022-09-25T10:39:04;9.90;;;8.60;;
12259;SDS011;6192;47.742;9.262;2022-09-25T10:42:30;10.03;;;9.03;;
12259;SDS011;6192;47.742;9.262;2022-09-25T10:47:49;10.60;;;9.50;;
12259;SDS011;6192;47.742;9.262;2022-09-25T10:50:34;11.93;;;10.57;;
12259;SDS011;6192;47.742;9.262;2022-09-25T10:53:04;10.13;;;9.13;;
12259;SDS011;6192;47.742;9.262;2022-09-25T10:55:42;9.60;;;8.63;;
12259;SDS011;6192;47.742;9.262;2022-09-25T10:58:12;10.73;;;9.70;;
12259;SDS011;6192;47.742;9.262;2022-09-25T11:06:25;11.37;;;10.27;;
12259;SDS011;6192;47.742;9.262;2022-09-25T11:11:45;11.87;;;10.67;;
12259;SDS011;6192;47.742;9.262;2022-09-25T11:14:19;11.57;;;10.47;;
12259;SDS011;6192;47.742;9.262;2022-09-25T11:16:54;11.77;;;10.53;;
12259;SDS011;6192;47.742;9.262;2022-09-25T11:19:24;16.57;;;14.90;;
12259;SDS011;6192;47.742;9.262;2022-09-25T11:24:51;11.03;;;9.93;;
12259;SDS011;6192;47.742;9.262;2022-09-25T11:27:50;15.00;;;13.50;;
12259;SDS011;6192;47.742;9.262;2022-09-25T11:30:20;11.40;;;10.30;;
12259;SDS011;6192;47.742;9.262;2022-09-25T11:38:39;10.33;;;9.33;;
12259;SDS011;6192;47.742;9.262;2022-09-25T11:41:43;8.57;;;7.77;;
12259;SDS011;6192;47.742;9.262;2022-09-25T11:47:12;8.23;;;7.53;;
12259;SDS011;6192;47.742;9.262;2022-09-25T11:49:46;8.97;;;8.17;;
12259;SDS011;6192;47.742;9.262;2022-09-25T11:52:19;10.40;;;9.40;;
12259;SDS011;6192;47.742;9.262;2022-09-25T11:57:47;9.77;;;8.87;;
12259;SDS011;6192;47.742;9.262;2022-09-25T12:00:22;9.23;;;8.33;;
12259;SDS011;6192;47.742;9.262;2022-09-25T12:03:32;9.47;;;8.57;;
12259;SDS011;6192;47.742;9.262;2022-09-25T12:06:29;13.80;;;12.20;;
12259;SDS011;6192;47.742;9.262;2022-09-25T12:09:33;11.30;;;10.20;;
12259;SDS011;6192;47.742;9.262;2022-09-25T12:15:23;8.67;;;7.70;;
12259;SDS011;6192;47.742;9.262;2022-09-25T12:17:59;9.07;;;8.23;;
12259;SDS011;6192;47.742;9.262;2022-09-25T12:20:43;8.83;;;7.93;;
12259;SDS011;6192;47.742;9.262;2022-09-25T12:31:08;5.73;;;5.23;;
12259;SDS011;6192;47.742;9.262;2022-09-25T12:36:27;6.30;;;5.53;;
12259;SDS011;6192;47.742;9.262;2022-09-25T12:41:54;5.27;;;4.77;;
12259;SDS011;6192;47.742;9.262;2022-09-25T12:47:19;6.60;;;6.00;;
12259;SDS011;6192;47.742;9.262;2022-09-25T12:49:53;6.50;;;5.90;;
12259;SDS011;6192;47.742;9.262;2022-09-25T12:55:24;4.40;;;4.00;;
12259;SDS011;6192;47.742;9.262;2022-09-25T12:58:25;3.70;;;3.40;;
12259;SDS011;6192;47.742;9.262;2022-09-25T13:09:43;4.30;;;3.90;;
12259;SDS011;6192;47.742;9.262;2022-09-25T13:14:56;4.57;;;3.10;;
12259;SDS011;6192;47.742;9.262;2022-09-25T13:17:26;3.43;;;3.13;;
12259;SDS011;6192;47.742;9.262;2022-09-25T13:19:53;3.27;;;3.00;;
12259;SDS011;6192;47.742;9.262;2022-09-25T13:22:40;3.50;;;3.20;;
12259;SDS011;6192;47.742;9.262;2022-09-25T13:25:13;3.67;;;3.37;;
12259;SDS011;6192;47.742;9.262;2022-09-25T13:27:43;4.10;;;3.40;;
12259;SDS011;6192;47.742;9.262;2022-09-25T13:30:21;5.47;;;3.80;;
12259;SDS011;6192;47.742;9.262;2022-09-25T13:32:51;4.87;;;3.80;;
12259;SDS011;6192;47.742;9.262;2022-09-25T13:35:20;5.30;;;3.97;;
12259;SDS011;6192;47.742;9.262;2022-09-25T13:37:50;3.83;;;3.50;;
12259;SDS011;6192;47.742;9.262;2022-09-25T13:40:22;4.03;;;3.63;;
12259;SDS011;6192;47.742;9.262;2022-09-25T13:45:46;4.33;;;3.93;;
12259;SDS011;6192;47.742;9.262;2022-09-25T13:54:06;5.90;;;5.30;;
12259;SDS011;6192;47.742;9.262;2022-09-25T13:56:51;5.63;;;5.13;;
12259;SDS011;6192;47.742;9.262;2022-09-25T13:59:21;5.93;;;5.43;;
12259;SDS011;6192;47.742;9.262;2022-09-25T14:05:03;5.60;;;5.10;;
12259;SDS011;6192;47.742;9.262;2022-09-25T14:07:31;4.77;;;4.37;;
12259;SDS011;6192;47.742;9.262;2022-09-25T14:09:59;3.90;;;3.50;;
12259;SDS011;6192;47.742;9.262;2022-09-25T14:12:43;4.33;;;3.90;;
12259;SDS011;6192;47.742;9.262;2022-09-25T14:15:21;4.60;;;3.80;;
12259;SDS011;6192;47.742;9.262;2022-09-25T14:17:52;4.00;;;3.60;;
12259;SDS011;6192;47.742;9.262;2022-09-25T14:22:57;4.27;;;3.87;;
12259;SDS011;6192;47.742;9.262;2022-09-25T14:25:30;4.30;;;3.90;;
12259;SDS011;6192;47.742;9.262;2022-09-25T14:28:02;4.10;;;3.70;;
12259;SDS011;6192;47.742;9.262;2022-09-25T14:31:10;3.90;;;3.60;;
12259;SDS011;6192;47.742;9.262;2022-09-25T14:39:36;4.40;;;3.80;;
12259;SDS011;6192;47.742;9.262;2022-09-25T14:42:32;4.93;;;3.87;;
12259;SDS011;6192;47.742;9.262;2022-09-25T14:47:54;4.97;;;3.77;;
12259;SDS011;6192;47.742;9.262;2022-09-25T14:50:26;4.20;;;3.90;;
12259;SDS011;6192;47.742;9.262;2022-09-25T14:53:00;4.47;;;4.07;;
12259;SDS011;6192;47.742;9.262;2022-09-25T14:55:34;4.80;;;3.80;;
12259;SDS011;6192;47.742;9.262;2022-09-25T14:58:12;4.73;;;4.03;;
12259;SDS011;6192;47.742;9.262;2022-09-25T15:00:44;4.77;;;4.30;;
12259;SDS011;6192;47.742;9.262;2022-09-25T15:03:13;5.07;;;4.20;;
12259;SDS011;6192;47.742;9.262;2022-09-25T15:05:45;4.87;;;4.43;;
12259;SDS011;6192;47.742;9.262;2022-09-25T15:08:30;5.90;;;4.73;;
12259;SDS011;6192;47.742;9.262;2022-09-25T15:13:37;5.23;;;4.73;;
12259;SDS011;6192;47.742;9.262;2022-09-25T15:16:04;5.90;;;4.37;;
12259;SDS011;6192;47.742;9.262;2022-09-25T15:18:53;4.93;;;4.50;;
12259;SDS011;6192;47.742;9.262;2022-09-25T15:21:28;4.73;;;4.33;;
12259;SDS011;6192;47.742;9.262;2022-09-25T15:24:01;5.10;;;3.77;;
12259;SDS011;6192;47.742;9.262;2022-09-25T15:26:37;4.67;;;3.37;;
12259;SDS011;6192;47.742;9.262;2022-09-25T15:29:14;3.60;;;3.23;;
12259;SDS011;6192;47.742;9.262;2022-09-25T15:31:49;3.47;;;2.97;;
12259;SDS011;6192;47.742;9.262;2022-09-25T15:34:24;3.07;;;2.87;;
12259;SDS011;6192;47.742;9.262;2022-09-25T15:39:55;3.43;;;3.13;;
12259;SDS011;6192;47.742;9.262;2022-09-25T15:42:25;4.47;;;3.80;;
12259;SDS011;6192;47.742;9.262;2022-09-25T15:44:52;7.77;;;4.13;;
12259;SDS011;6192;47.742;9.262;2022-09-25T15:50:02;9.00;;;4.30;;
12259;SDS011;6192;47.742;9.262;2022-09-25T15:52:34;10.83;;;5.70;;
12259;SDS011;6192;47.742;9.262;2022-09-25T15:55:02;8.03;;;4.17;;
12259;SDS011;6192;47.742;9.262;2022-09-25T15:57:35;5.50;;;3.60;;
12259;SDS011;6192;47.742;9.262;2022-09-25T16:00:06;4.63;;;4.00;;
12259;SDS011;6192;47.742;9.262;2022-09-25T16:03:00;5.23;;;4.00;;
12259;SDS011;6192;47.742;9.262;2022-09-25T16:05:55;5.13;;;4.47;;
12259;SDS011;6192;47.742;9.262;2022-09-25T16:08:29;4.80;;;4.20;;
12259;SDS011;6192;47.742;9.262;2022-09-25T16:13:35;6.67;;;5.00;;
12259;SDS011;6192;47.742;9.262;2022-09-25T16:16:15;6.73;;;5.40;;
12259;SDS011;6192;47.742;9.262;2022-09-25T16:19:18;5.13;;;4.23;;
12259;SDS011;6192;47.742;9.262;2022-09-25T16:21:52;4.30;;;3.90;;
12259;SDS011;6192;47.742;9.262;2022-09-25T16:24:23;5.57;;;4.20;;
12259;SDS011;6192;47.742;9.262;2022-09-25T16:27:00;4.60;;;4.17;;
12259;SDS011;6192;47.742;9.262;2022-09-25T16:29:31;6.57;;;4.30;;
12259;SDS011;6192;47.742;9.262;2022-09-25T16:32:02;5.03;;;4.53;;
12259;SDS011;6192;47.742;9.262;2022-09-25T16:34:33;4.63;;;4.23;;
12259;SDS011;6192;47.742;9.262;2022-09-25T16:37:04;4.70;;;4.30;;
12259;SDS011;6192;47.742;9.262;2022-09-25T16:39:39;4.87;;;4.40;;
12259;SDS011;6192;47.742;9.262;2022-09-25T16:42:22;4.90;;;4.40;;
12259;SDS011;6192;47.742;9.262;2022-09-25T16:45:01;5.70;;;5.20;;
12259;SDS011;6192;47.742;9.262;2022-09-25T16:47:40;6.43;;;5.83;;
12259;SDS011;6192;47.742;9.262;2022-09-25T16:50:14;5.53;;;5.00;;
12259;SDS011;6192;47.742;9.262;2022-09-25T16:52:41;5.90;;;5.10;;
12259;SDS011;6192;47.742;9.262;2022-09-25T16:55:27;6.53;;;5.93;;
12259;SDS011;6192;47.742;9.262;2022-09-25T16:57:55;5.97;;;5.37;;
12259;SDS011;6192;47.742;9.262;2022-09-25T17:00:25;6.13;;;5.53;;
12259;SDS011;6192;47.742;9.262;2022-09-25T17:02:53;5.90;;;5.30;;
12259;SDS011;6192;47.742;9.262;2022-09-25T17:05:25;5.83;;;5.30;;
12259;SDS011;6192;47.742;9.262;2022-09-25T17:07:58;5.90;;;5.13;;
12259;SDS011;6192;47.742;9.262;2022-09-25T17:10:28;6.27;;;5.47;;
12259;SDS011;6192;47.742;9.262;2022-09-25T17:12:59;5.33;;;4.83;;
12259;SDS011;6192;47.742;9.262;2022-09-25T17:15:28;6.20;;;4.83;;
12259;SDS011;6192;47.742;9.262;2022-09-25T17:17:59;5.53;;;5.00;;
12259;SDS011;6192;47.742;9.262;2022-09-25T17:20:28;5.40;;;4.90;;
12259;SDS011;6192;47.742;9.262;2022-09-25T17:22:59;7.73;;;4.70;;
12259;SDS011;6192;47.742;9.262;2022-09-25T17:25:35;11.03;;;9.60;;
12259;SDS011;6192;47.742;9.262;2022-09-25T17:28:06;13.73;;;12.10;;
12259;SDS011;6192;47.742;9.262;2022-09-25T17:30:35;6.37;;;5.77;;
12259;SDS011;6192;47.742;9.262;2022-09-25T17:33:02;5.53;;;5.03;;
12259;SDS011;6192;47.742;9.262;2022-09-25T17:35:36;4.77;;;4.27;;
12259;SDS011;6192;47.742;9.262;2022-09-25T17:38:18;4.77;;;4.37;;
12259;SDS011;6192;47.742;9.262;2022-09-25T17:40:46;4.90;;;4.50;;
12259;SDS011;6192;47.742;9.262;2022-09-25T17:43:17;6.40;;;5.20;;
12259;SDS011;6192;47.742;9.262;2022-09-25T17:45:51;6.20;;;5.70;;
12259;SDS011;6192;47.742;9.262;2022-09-25T17:48:21;8.97;;;7.00;;
12259;SDS011;6192;47.742;9.262;2022-09-25T17:50:53;8.83;;;8.03;;
12259;SDS011;6192;47.742;9.262;2022-09-25T17:53:22;7.73;;;6.93;;